createdAt,value
2023-05-26T00:00:40.533Z,80.20
2023-05-26T00:03:08.602Z,80.17
2023-05-26T00:05:41.056Z,80.71
2023-05-26T00:08:10.667Z,80.81
2023-05-26T00:10:37.425Z,81.12
2023-05-26T00:13:04.122Z,81.11
2023-05-26T00:15:30.989Z,80.90
2023-05-26T00:17:59.154Z,81.59
2023-05-26T00:20:26.722Z,81.62
2023-05-26T00:22:53.210Z,82.17
2023-05-26T00:25:19.739Z,81.90
2023-05-26T00:27:46.254Z,82.27
2023-05-26T00:30:13.235Z,82.20
2023-05-26T00:32:39.768Z,82.29
2023-05-26T00:35:06.769Z,82.69
2023-05-26T00:37:33.700Z,82.49
2023-05-26T00:40:01.348Z,82.93
2023-05-26T00:42:27.923Z,82.77
2023-05-26T00:44:54.487Z,82.83
2023-05-26T00:47:21.136Z,82.84
2023-05-26T00:49:49.721Z,82.96
2023-05-26T00:52:16.392Z,83.05
2023-05-26T00:54:43.329Z,83.33
2023-05-26T00:57:10.277Z,83.12
2023-05-26T00:59:37.141Z,83.49
2023-05-26T01:02:03.908Z,83.58
2023-05-26T01:04:30.471Z,83.47
2023-05-26T01:06:57.201Z,83.56
2023-05-26T01:09:24.075Z,83.70
2023-05-26T01:12:09.669Z,83.61
2023-05-26T01:14:46.721Z,83.76
2023-05-26T01:17:19.477Z,83.80
2023-05-26T01:20:22.624Z,83.49
2023-05-26T01:22:52.063Z,84.13
2023-05-26T01:28:07.602Z,83.88
2023-05-26T01:30:39.298Z,84.15
2023-05-26T01:33:05.985Z,84.69
2023-05-26T01:35:32.650Z,84.62
2023-05-26T01:38:01.193Z,84.64
2023-05-26T01:40:29.382Z,84.64
2023-05-26T01:42:58.926Z,84.68
2023-05-26T01:45:28.905Z,84.63
2023-05-26T01:47:59.354Z,84.58
2023-05-26T01:50:33.434Z,84.81
2023-05-26T01:53:08.255Z,84.94
2023-05-26T01:55:37.191Z,85.05
2023-05-26T01:58:04.618Z,85.02
2023-05-26T02:00:34.730Z,85.34
2023-05-26T02:03:01.310Z,85.44
2023-05-26T02:05:27.903Z,86.14
2023-05-26T02:07:54.424Z,85.79
2023-05-26T02:10:20.989Z,86.28
2023-05-26T02:12:47.536Z,86.70
2023-05-26T02:15:14.062Z,86.88
2023-05-26T02:17:41.735Z,86.72
2023-05-26T02:20:10.426Z,86.85
2023-05-26T02:22:37.081Z,87.11
2023-05-26T02:25:03.715Z,87.21
2023-05-26T02:27:30.298Z,87.23
2023-05-26T02:29:56.939Z,87.41
2023-05-26T02:32:24.291Z,87.34
2023-05-26T02:34:51.264Z,87.06
2023-05-26T02:37:19.105Z,87.18
2023-05-26T02:39:45.683Z,87.34
2023-05-26T02:42:12.246Z,87.68
2023-05-26T02:44:38.680Z,87.84
2023-05-26T02:47:05.681Z,88.06
2023-05-26T02:49:32.207Z,88.14
2023-05-26T02:51:58.670Z,88.09
2023-05-26T02:54:25.132Z,88.40
2023-05-26T02:56:51.720Z,88.50
2023-05-26T02:59:18.211Z,88.53
2023-05-26T03:01:44.815Z,88.81
2023-05-26T03:04:11.432Z,88.76
2023-05-26T03:06:38.138Z,88.89
2023-05-26T03:09:05.570Z,88.94
2023-05-26T03:11:32.018Z,88.79
2023-05-26T03:13:58.496Z,88.63
2023-05-26T03:16:25.854Z,88.98
2023-05-26T03:18:52.586Z,89.05
2023-05-26T03:21:49.419Z,89.41
2023-05-26T03:24:08.981Z,89.08
2023-05-26T03:26:35.826Z,89.17
2023-05-26T03:29:02.547Z,89.34
2023-05-26T03:31:29.145Z,89.46
2023-05-26T03:33:56.011Z,89.29
2023-05-26T03:36:22.918Z,89.16
2023-05-26T03:38:51.375Z,89.22
2023-05-26T03:41:18.004Z,89.24
2023-05-26T03:43:57.106Z,89.29
2023-05-26T03:46:23.799Z,89.61
2023-05-26T03:48:50.738Z,89.83
2023-05-26T03:51:17.412Z,89.78
2023-05-26T03:53:44.402Z,89.56
2023-05-26T03:56:13.054Z,89.53
2023-05-26T03:58:39.605Z,89.74
2023-05-26T04:01:08.946Z,89.52
2023-05-26T04:03:35.568Z,89.04
2023-05-26T04:06:02.567Z,89.14
2023-05-26T04:08:29.285Z,89.21
2023-05-26T04:10:56.067Z,89.35
2023-05-26T04:13:24.501Z,88.90
2023-05-26T04:15:51.362Z,89.10
2023-05-26T04:18:18.272Z,88.87
2023-05-26T04:20:44.915Z,88.89
2023-05-26T04:23:11.967Z,88.92
2023-05-26T04:25:38.763Z,88.65
2023-05-26T04:28:23.600Z,88.74
2023-05-26T04:31:10.166Z,88.47
2023-05-26T04:33:55.488Z,88.38
2023-05-26T04:36:39.802Z,88.43
2023-05-26T04:39:07.852Z,88.13
2023-05-26T04:41:34.680Z,87.73
2023-05-26T04:44:01.518Z,87.09
2023-05-26T04:46:29.688Z,86.43
2023-05-26T04:48:59.575Z,85.98
2023-05-26T04:51:28.732Z,85.19
2023-05-26T04:53:55.240Z,82.97
2023-05-26T04:56:22.877Z,80.84
2023-05-26T04:58:53.287Z,80.06
2023-05-26T05:01:20.024Z,81.15
2023-05-26T05:04:05.660Z,75.81
2023-05-26T05:06:32.457Z,73.33
2023-05-26T05:08:59.493Z,73.29
2023-05-26T05:11:26.357Z,74.34
2023-05-26T05:13:53.589Z,75.81
2023-05-26T05:16:21.553Z,77.16
2023-05-26T05:18:48.845Z,77.49
2023-05-26T05:21:17.280Z,75.88
2023-05-26T05:23:44.557Z,75.57
2023-05-26T05:26:11.566Z,76.03
2023-05-26T05:28:39.919Z,76.27
2023-05-26T05:31:15.066Z,75.83
2023-05-26T05:33:44.117Z,75.87
2023-05-26T05:36:11.662Z,76.04
2023-05-26T05:38:39.470Z,75.97
2023-05-26T05:41:06.086Z,75.57
2023-05-26T05:43:33.798Z,74.28
2023-05-26T05:46:00.471Z,73.10
2023-05-26T05:48:43.573Z,72.40
2023-05-26T05:51:15.743Z,71.27
2023-05-26T05:53:45.059Z,71.32
2023-05-26T05:56:12.095Z,70.61
2023-05-26T05:58:39.201Z,68.84
2023-05-26T06:01:06.000Z,67.10
2023-05-26T06:03:32.628Z,65.40
2023-05-26T06:05:59.712Z,64.71
2023-05-26T06:08:26.252Z,64.60
2023-05-26T06:10:53.042Z,63.97
2023-05-26T06:13:19.796Z,63.57
2023-05-26T06:15:47.165Z,63.80
2023-05-26T06:18:15.314Z,63.34
2023-05-26T06:20:43.235Z,63.13
2023-05-26T06:23:12.103Z,62.10
2023-05-26T06:25:38.875Z,61.80
2023-05-26T06:28:06.243Z,62.25
2023-05-26T06:30:32.932Z,62.11
2023-05-26T06:33:14.130Z,62.55
2023-05-26T06:35:42.481Z,61.89
2023-05-26T06:38:09.142Z,62.16
2023-05-26T06:40:35.890Z,61.03
2023-05-26T06:43:02.954Z,61.37
2023-05-26T06:45:29.765Z,61.46
2023-05-26T06:47:57.183Z,61.85
2023-05-26T06:50:25.773Z,61.77
2023-05-26T06:52:56.703Z,62.05
2023-05-26T06:55:23.364Z,61.85
2023-05-26T06:57:49.882Z,61.05
2023-05-26T07:00:18.600Z,61.64
2023-05-26T07:02:45.853Z,61.36
2023-05-26T07:05:25.610Z,61.49
2023-05-26T07:07:52.476Z,60.95
2023-05-26T07:10:19.075Z,61.16
2023-05-26T07:12:46.637Z,61.27
2023-05-26T07:15:27.082Z,59.77
2023-05-26T07:17:53.639Z,60.52
2023-05-26T07:20:20.251Z,60.09
2023-05-26T07:22:46.949Z,60.31
2023-05-26T07:25:20.288Z,58.66
2023-05-26T07:27:49.029Z,58.05
2023-05-26T07:30:15.922Z,57.71
2023-05-26T07:32:55.386Z,56.49
2023-05-26T07:35:23.039Z,56.04
2023-05-26T07:37:49.924Z,55.23
2023-05-26T07:40:16.527Z,55.59
2023-05-26T07:42:43.786Z,55.04
2023-05-26T07:45:10.967Z,54.80
2023-05-26T07:47:37.575Z,53.37
2023-05-26T07:50:04.757Z,52.09
2023-05-26T07:52:31.353Z,52.35
2023-05-26T07:54:58.082Z,52.02
2023-05-26T07:57:29.883Z,51.12
2023-05-26T07:59:57.718Z,51.78
2023-05-26T08:02:24.857Z,50.72
2023-05-26T08:04:51.693Z,51.52
2023-05-26T08:07:19.628Z,50.28
2023-05-26T08:09:46.798Z,49.16
2023-05-26T08:12:13.694Z,48.88
2023-05-26T08:14:40.480Z,48.59
2023-05-26T08:17:06.988Z,47.91
2023-05-26T08:19:33.471Z,48.29
2023-05-26T08:21:59.984Z,48.12
2023-05-26T08:24:26.953Z,48.01
2023-05-26T08:26:53.538Z,48.22
2023-05-26T08:29:20.135Z,46.98
2023-05-26T08:31:47.986Z,47.04
2023-05-26T08:34:14.732Z,47.95
2023-05-26T08:36:41.189Z,47.42
2023-05-26T08:39:07.769Z,46.10
2023-05-26T08:41:46.613Z,45.17
2023-05-26T08:44:16.765Z,45.77
2023-05-26T08:46:45.758Z,45.27
2023-05-26T08:49:16.860Z,44.95
2023-05-26T08:51:47.218Z,45.52
2023-05-26T08:54:13.874Z,44.55
2023-05-26T08:56:41.661Z,44.57
2023-05-26T09:01:37.354Z,44.80
2023-05-26T09:04:04.039Z,44.87
2023-05-26T09:06:31.061Z,43.96
2023-05-26T09:08:57.633Z,42.46
2023-05-26T09:11:26.501Z,42.83
2023-05-26T09:13:54.409Z,43.99
2023-05-26T09:16:25.910Z,43.71
2023-05-26T09:18:58.339Z,43.07
2023-05-26T09:21:29.026Z,43.43
2023-05-26T09:24:01.720Z,42.95
2023-05-26T09:26:35.937Z,42.87
2023-05-26T09:29:03.674Z,42.53
2023-05-26T09:31:44.353Z,42.82
2023-05-26T09:34:12.198Z,42.93
2023-05-26T09:36:40.051Z,43.36
2023-05-26T09:39:09.430Z,42.71
2023-05-26T09:41:46.558Z,43.09
2023-05-26T09:44:19.884Z,42.70
2023-05-26T09:46:47.542Z,41.96
2023-05-26T09:49:19.046Z,42.06
2023-05-26T09:52:01.605Z,41.67
2023-05-26T09:54:37.654Z,41.24
2023-05-26T09:57:06.860Z,41.49
2023-05-26T09:59:39.021Z,40.75
2023-05-26T10:02:22.034Z,41.18
2023-05-26T10:04:50.853Z,40.23
2023-05-26T10:07:21.539Z,41.27
2023-05-26T10:09:53.161Z,41.00
2023-05-26T10:12:27.748Z,40.47
2023-05-26T10:14:55.275Z,39.46
2023-05-26T10:17:27.292Z,40.17
2023-05-26T10:19:55.834Z,40.52
2023-05-26T10:22:28.188Z,39.45
2023-05-26T10:25:01.531Z,39.65
2023-05-26T10:27:52.244Z,39.43
2023-05-26T10:30:20.931Z,38.79
2023-05-26T10:32:50.383Z,39.29
2023-05-26T10:35:24.877Z,38.68
2023-05-26T10:37:56.723Z,38.85
2023-05-26T10:40:45.776Z,39.07
2023-05-26T10:43:21.235Z,38.78
2023-05-26T10:46:04.445Z,39.42
2023-05-26T10:48:57.056Z,38.96
2023-05-26T10:51:29.384Z,38.94
2023-05-26T10:53:58.127Z,39.15
2023-05-26T10:56:34.990Z,37.96
2023-05-26T10:59:04.208Z,38.15
2023-05-26T11:01:32.427Z,37.71
2023-05-26T11:04:05.702Z,37.87
2023-05-26T11:06:49.781Z,37.71
2023-05-26T11:09:16.542Z,37.63
2023-05-26T11:11:54.492Z,38.53
2023-05-26T11:14:29.183Z,38.08
2023-05-26T11:17:03.813Z,37.65
2023-05-26T11:19:39.231Z,37.79
2023-05-26T11:22:09.270Z,37.44
2023-05-26T11:24:37.017Z,37.89
2023-05-26T11:27:05.413Z,38.02
2023-05-26T11:29:32.793Z,37.51
2023-05-26T11:31:59.468Z,37.11
2023-05-26T11:34:26.360Z,36.57
2023-05-26T11:36:55.001Z,36.76
2023-05-26T11:39:24.874Z,37.52
2023-05-26T11:41:51.439Z,36.96
2023-05-26T11:44:18.152Z,37.21
2023-05-26T11:46:45.645Z,37.27
2023-05-26T11:49:16.911Z,37.22
2023-05-26T11:51:51.839Z,36.07
2023-05-26T11:54:20.192Z,35.50
2023-05-26T11:56:48.193Z,36.83
2023-05-26T11:59:18.961Z,35.91
2023-05-26T12:01:45.973Z,36.27
2023-05-26T12:04:13.212Z,36.07
2023-05-26T12:06:42.220Z,35.87
2023-05-26T12:09:28.034Z,37.02
2023-05-26T12:11:54.813Z,36.87
2023-05-26T12:14:23.564Z,37.54
2023-05-26T12:16:53.318Z,36.38
2023-05-26T12:19:23.107Z,36.69
2023-05-26T12:21:57.528Z,35.75
2023-05-26T12:24:35.889Z,36.04
2023-05-26T12:27:12.569Z,35.72
2023-05-26T12:29:41.901Z,36.05
2023-05-26T12:32:10.203Z,36.34
2023-05-26T12:34:39.707Z,35.68
2023-05-26T12:37:07.015Z,35.89
2023-05-26T12:39:33.597Z,36.14
2023-05-26T12:42:02.607Z,35.71
2023-05-26T12:44:29.203Z,34.21
2023-05-26T12:46:55.756Z,35.32
2023-05-26T12:49:22.418Z,35.39
2023-05-26T12:51:49.096Z,34.45
2023-05-26T12:54:15.674Z,34.84
2023-05-26T12:56:42.151Z,35.27
2023-05-26T12:59:19.290Z,35.46
2023-05-26T13:01:47.564Z,35.21
2023-05-26T13:04:14.804Z,35.13
2023-05-26T13:06:41.674Z,35.19
2023-05-26T13:09:08.273Z,35.09
2023-05-26T13:11:34.926Z,35.81
2023-05-26T13:14:01.596Z,35.52
2023-05-26T13:16:28.209Z,35.45
2023-05-26T13:18:54.804Z,36.01
2023-05-26T13:21:21.336Z,35.23
2023-05-26T13:23:47.927Z,36.20
2023-05-26T13:26:14.689Z,34.74
2023-05-26T13:28:41.195Z,34.75
2023-05-26T13:31:07.970Z,34.71
2023-05-26T13:33:34.630Z,34.67
2023-05-26T13:36:01.452Z,34.49
2023-05-26T13:38:28.065Z,35.48
2023-05-26T13:40:57.041Z,34.86
2023-05-26T13:43:24.233Z,35.09
2023-05-26T13:45:54.463Z,36.01
2023-05-26T13:48:23.282Z,35.29
2023-05-26T13:50:49.995Z,35.99
2023-05-26T13:53:16.590Z,35.88
2023-05-26T13:55:43.858Z,36.00
2023-05-26T13:58:10.733Z,35.27
2023-05-26T14:00:37.682Z,34.75
2023-05-26T14:03:05.433Z,35.75
2023-05-26T14:05:32.646Z,37.26
2023-05-26T14:07:59.294Z,36.82
2023-05-26T14:10:28.229Z,37.14
2023-05-26T14:12:54.830Z,35.89
2023-05-26T14:15:21.384Z,35.73
2023-05-26T14:17:56.293Z,36.40
2023-05-26T14:21:38.263Z,36.81
2023-05-26T14:23:17.103Z,37.63
2023-05-26T14:25:43.896Z,37.84
2023-05-26T14:28:10.540Z,37.47
2023-05-26T14:30:37.082Z,36.83
2023-05-26T14:33:06.466Z,37.50
2023-05-26T14:35:33.036Z,37.70
2023-05-26T14:37:59.474Z,38.65
2023-05-26T14:40:26.060Z,38.33
2023-05-26T14:42:52.663Z,38.43
2023-05-26T14:45:19.252Z,38.42
2023-05-26T14:47:45.844Z,37.41
2023-05-26T14:50:12.403Z,38.24
2023-05-26T14:52:38.864Z,38.60
2023-05-26T14:55:07.697Z,39.00
2023-05-26T14:57:34.220Z,38.88
2023-05-26T15:00:00.745Z,39.04
2023-05-26T15:02:27.345Z,38.01
2023-05-26T15:04:54.004Z,37.96
2023-05-26T15:07:21.317Z,38.92
2023-05-26T15:09:47.829Z,37.92
2023-05-26T15:12:14.387Z,38.67
2023-05-26T15:14:41.937Z,39.34
2023-05-26T15:17:08.468Z,39.12
2023-05-26T15:19:35.438Z,39.68
2023-05-26T15:22:02.022Z,39.51
2023-05-26T15:24:28.543Z,38.69
2023-05-26T15:26:55.280Z,39.16
2023-05-26T15:29:21.981Z,38.89
2023-05-26T15:31:48.528Z,39.22
2023-05-26T15:34:16.214Z,39.78
2023-05-26T15:36:49.668Z,39.50
2023-05-26T15:39:17.735Z,40.07
2023-05-26T15:41:45.029Z,39.52
2023-05-26T15:44:12.381Z,40.03
2023-05-26T15:46:41.351Z,40.01
2023-05-26T15:49:12.156Z,41.09
2023-05-26T15:51:38.660Z,41.05
2023-05-26T15:54:06.269Z,40.23
2023-05-26T15:56:36.103Z,39.67
2023-05-26T15:59:02.753Z,40.23
2023-05-26T16:01:29.652Z,40.47
2023-05-26T16:03:56.445Z,41.01
2023-05-26T16:06:23.342Z,41.27
2023-05-26T16:08:50.005Z,41.08
2023-05-26T16:11:17.437Z,40.60
2023-05-26T16:13:44.309Z,39.87
2023-05-26T16:16:11.685Z,40.98
2023-05-26T16:18:38.661Z,41.00
2023-05-26T16:21:05.705Z,41.06
2023-05-26T16:23:32.206Z,41.96
2023-05-26T16:26:00.359Z,41.81
2023-05-26T16:28:27.124Z,42.11
2023-05-26T16:30:54.375Z,42.21
2023-05-26T16:33:21.899Z,41.55
2023-05-26T16:35:51.739Z,42.08
2023-05-26T16:38:19.708Z,42.11
2023-05-26T16:40:46.586Z,42.20
2023-05-26T16:43:15.521Z,42.85
2023-05-26T16:45:44.253Z,43.14
2023-05-26T16:48:10.782Z,43.21
2023-05-26T16:50:37.289Z,42.95
2023-05-26T16:53:03.831Z,43.78
2023-05-26T16:55:30.521Z,44.35
2023-05-26T16:57:57.043Z,44.60
2023-05-26T17:00:23.713Z,44.78
2023-05-26T17:02:50.395Z,44.69
2023-05-26T17:05:17.115Z,45.07
2023-05-26T17:07:43.760Z,44.89
2023-05-26T17:10:12.882Z,45.82
2023-05-26T17:12:39.526Z,45.71
2023-05-26T17:15:07.022Z,45.70
2023-05-26T17:17:34.220Z,45.66
2023-05-26T17:20:00.948Z,45.99
2023-05-26T17:22:27.739Z,45.79
2023-05-26T17:24:54.547Z,46.16
2023-05-26T17:27:21.328Z,45.97
2023-05-26T17:29:47.951Z,46.38
2023-05-26T17:32:18.224Z,46.19
2023-05-26T17:34:46.293Z,46.56
2023-05-26T17:37:14.726Z,46.79
2023-05-26T17:39:42.442Z,46.96
2023-05-26T17:42:09.228Z,47.27
2023-05-26T17:44:36.421Z,46.64
2023-05-26T17:47:04.018Z,47.19
2023-05-26T17:49:30.691Z,47.07
2023-05-26T17:51:57.214Z,47.26
2023-05-26T17:54:29.054Z,48.00
2023-05-26T17:56:56.748Z,47.44
2023-05-26T17:59:24.032Z,47.74
2023-05-26T18:01:51.637Z,48.37
2023-05-26T18:04:18.452Z,48.58
2023-05-26T18:06:45.287Z,48.31
2023-05-26T18:09:11.908Z,48.73
2023-05-26T18:11:38.527Z,48.94
2023-05-26T18:14:05.145Z,48.82
2023-05-26T18:16:32.162Z,49.30
2023-05-26T18:18:59.206Z,49.27
2023-05-26T18:21:26.969Z,49.74
2023-05-26T18:23:53.605Z,50.02
2023-05-26T18:26:22.797Z,50.56
2023-05-26T18:28:49.489Z,50.73
2023-05-26T18:31:16.431Z,50.90
2023-05-26T18:33:42.897Z,51.01
2023-05-26T18:36:09.380Z,50.70
2023-05-26T18:38:36.443Z,50.65
2023-05-26T18:41:03.095Z,50.89
2023-05-26T18:43:29.613Z,50.69
2023-05-26T18:45:56.180Z,51.06
2023-05-26T18:48:22.951Z,51.23
2023-05-26T18:50:49.511Z,51.29
2023-05-26T18:53:16.023Z,51.72
2023-05-26T18:55:42.570Z,51.90
2023-05-26T18:58:09.345Z,52.02
2023-05-26T19:00:37.831Z,52.61
2023-05-26T19:03:04.583Z,53.12
2023-05-26T19:05:31.295Z,53.27
2023-05-26T19:07:57.827Z,53.55
2023-05-26T19:10:24.335Z,54.23
2023-05-26T19:12:50.877Z,54.19
2023-05-26T19:15:17.884Z,54.15
2023-05-26T19:17:44.678Z,54.47
2023-05-26T19:20:12.804Z,54.64
2023-05-26T19:22:40.049Z,54.74
2023-05-26T19:25:07.214Z,55.09
2023-05-26T19:27:33.830Z,55.39
2023-05-26T19:30:00.384Z,55.24
2023-05-26T19:32:26.968Z,55.95
2023-05-26T19:34:53.442Z,55.95
2023-05-26T19:37:20.409Z,56.56
2023-05-26T19:39:46.965Z,56.66
2023-05-26T19:42:13.737Z,56.58
2023-05-26T19:44:40.312Z,57.00
2023-05-26T19:47:06.943Z,57.47
2023-05-26T19:49:33.586Z,57.63
2023-05-26T19:52:00.197Z,57.89
2023-05-26T19:54:27.008Z,58.03
2023-05-26T19:56:53.726Z,58.25
2023-05-26T19:59:20.837Z,58.69
2023-05-26T20:01:47.445Z,58.69
2023-05-26T20:04:15.853Z,58.62
2023-05-26T20:06:44.014Z,58.81
2023-05-26T20:09:11.070Z,59.29
2023-05-26T20:11:37.610Z,59.27
2023-05-26T20:14:05.132Z,59.57
2023-05-26T20:16:32.478Z,59.97
2023-05-26T20:19:00.082Z,60.09
2023-05-26T20:21:26.671Z,60.23
2023-05-26T20:23:53.449Z,60.39
2023-05-26T20:26:20.082Z,60.86
2023-05-26T20:28:49.041Z,60.82
2023-05-26T20:31:18.413Z,61.33
2023-05-26T20:33:46.390Z,61.93
2023-05-26T20:36:13.837Z,62.11
2023-05-26T20:38:40.542Z,61.71
2023-05-26T20:41:07.159Z,62.20
2023-05-26T20:43:33.714Z,62.47
2023-05-26T20:46:00.929Z,62.55
2023-05-26T20:48:27.462Z,62.70
2023-05-26T20:50:54.053Z,62.78
2023-05-26T20:53:20.938Z,63.19
2023-05-26T20:55:47.871Z,63.18
2023-05-26T20:58:14.423Z,63.63
2023-05-26T21:00:40.921Z,63.66
2023-05-26T21:03:07.724Z,63.89
2023-05-26T21:05:34.439Z,64.04
2023-05-26T21:08:01.184Z,64.18
2023-05-26T21:10:27.731Z,64.67
2023-05-26T21:12:54.465Z,64.88
2023-05-26T21:15:21.071Z,64.93
2023-05-26T21:17:47.669Z,65.28
2023-05-26T21:20:14.390Z,65.60
2023-05-26T21:22:41.091Z,65.89
2023-05-26T21:25:08.974Z,66.10
2023-05-26T21:27:35.531Z,66.44
2023-05-26T21:30:02.039Z,66.82
2023-05-26T21:32:28.716Z,66.97
2023-05-26T21:34:55.276Z,67.36
2023-05-26T21:37:21.783Z,67.52
2023-05-26T21:39:48.539Z,67.99
2023-05-26T21:42:15.056Z,67.86
2023-05-26T21:44:41.582Z,67.87
2023-05-26T21:47:08.094Z,67.99
2023-05-26T21:49:34.631Z,68.55
2023-05-26T21:52:01.219Z,68.03
2023-05-26T21:54:27.813Z,68.55
2023-05-26T21:56:54.361Z,68.47
2023-05-26T21:59:20.992Z,68.52
2023-05-26T22:01:48.470Z,68.35
2023-05-26T22:04:15.083Z,68.39
2023-05-26T22:06:41.617Z,68.42
2023-05-26T22:09:08.213Z,68.20
2023-05-26T22:11:34.922Z,68.46
2023-05-26T22:14:07.417Z,68.90
2023-05-26T22:16:40.103Z,68.86
2023-05-26T22:19:06.703Z,69.29
2023-05-26T22:21:33.209Z,69.41
2023-05-26T22:23:59.697Z,69.48
2023-05-26T22:26:27.239Z,69.58
2023-05-26T22:28:54.849Z,69.76
2023-05-26T22:31:22.539Z,70.10
2023-05-26T22:33:49.048Z,70.13
2023-05-26T22:36:15.679Z,69.99
2023-05-26T22:38:42.379Z,70.50
2023-05-26T22:41:08.857Z,70.79
2023-05-26T22:43:35.920Z,70.81
2023-05-26T22:46:02.827Z,70.96
2023-05-26T22:48:29.813Z,71.28
2023-05-26T22:50:56.277Z,71.25
2023-05-26T22:53:22.833Z,71.37
2023-05-26T22:55:57.171Z,71.49
2023-05-26T22:58:31.353Z,70.30
2023-05-26T23:00:57.943Z,71.27
2023-05-26T23:03:24.631Z,71.23
2023-05-26T23:05:51.396Z,71.35
2023-05-26T23:08:18.151Z,71.90
2023-05-26T23:10:44.623Z,71.68
2023-05-26T23:13:11.302Z,71.71
2023-05-26T23:15:37.824Z,71.81
2023-05-26T23:18:04.481Z,71.87
2023-05-26T23:20:31.111Z,72.43
2023-05-26T23:22:57.656Z,71.92
2023-05-26T23:25:24.146Z,72.07
2023-05-26T23:27:50.688Z,72.62
2023-05-26T23:30:17.176Z,72.83
2023-05-26T23:32:43.710Z,72.87
2023-05-26T23:35:11.453Z,72.85
2023-05-26T23:37:38.454Z,73.33
2023-05-26T23:40:05.801Z,73.42
2023-05-26T23:42:34.152Z,73.43
2023-05-26T23:45:00.789Z,73.62
2023-05-26T23:47:27.401Z,73.79
2023-05-26T23:49:54.127Z,73.84
2023-05-26T23:52:20.662Z,74.30
2023-05-26T23:54:47.280Z,74.26
2023-05-26T23:57:13.940Z,74.36
2023-05-26T23:59:40.461Z,74.65
